Rogue River, Oregon
Current Conditions -  °F | °C
As of 4:56 PM on Tuesday 25 Nov 2014 (Local Time) from KSXT Reporting Station
Clear Clear  
Wind Chill: 41°   Ceiling: Unl
Heat Index: 46°   Visibility: 10mi
Dew Point: 45°   Wind: 9mph
Humidity: 96%   Direction: 140°SE
Pressure: 30.4"   Gusts: NA
Location:  42.44°N, 123.17°W
Report Text: KSXT 260056Z AUTO 14008KT 10SM CLR 08/07 A3040 RMK AO2 SLP292 T00780072
Loading
Personal Weather Stations






























Interactive Weather Map New forecast layout! Learn more

10-Day Weather Forecast

Advertisements
Track Severe Weather on mobile